createdAt,value
2023-03-31T00:01:09.916Z,45.99
2023-03-31T00:03:44.822Z,45.93
2023-03-31T00:06:18.730Z,46.00
2023-03-31T00:08:52.028Z,46.17
2023-03-31T00:11:23.679Z,46.20
2023-03-31T00:13:51.727Z,46.43
2023-03-31T00:16:19.747Z,46.49
2023-03-31T00:18:51.150Z,46.61
2023-03-31T00:21:29.167Z,46.73
2023-03-31T00:23:58.880Z,46.90
2023-03-31T00:26:28.176Z,46.84
2023-03-31T00:28:57.297Z,46.94
2023-03-31T00:31:27.303Z,47.01
2023-03-31T00:33:56.663Z,47.07
2023-03-31T00:36:28.838Z,47.23
2023-03-31T00:39:00.739Z,47.22
2023-03-31T00:41:29.859Z,47.42
2023-03-31T00:44:08.601Z,47.37
2023-03-31T00:46:49.945Z,47.47
2023-03-31T00:49:30.537Z,47.42
2023-03-31T00:52:07.756Z,47.46
2023-03-31T00:54:36.684Z,47.65
2023-03-31T00:57:06.879Z,47.62
2023-03-31T00:59:38.164Z,47.76
2023-03-31T01:02:06.530Z,47.82
2023-03-31T01:04:39.112Z,47.90
2023-03-31T01:07:31.076Z,47.96
2023-03-31T01:10:01.589Z,48.06
2023-03-31T01:12:30.281Z,48.02
2023-03-31T01:14:58.969Z,48.20
2023-03-31T01:17:30.138Z,48.16
2023-03-31T01:20:12.194Z,48.20
2023-03-31T01:22:49.685Z,48.27
2023-03-31T01:25:27.273Z,48.32
2023-03-31T01:27:57.943Z,48.15
2023-03-31T01:30:31.977Z,48.29
2023-03-31T01:33:05.949Z,48.34
2023-03-31T01:35:47.244Z,48.42
2023-03-31T01:38:17.860Z,48.49
2023-03-31T01:40:50.060Z,48.64
2023-03-31T01:43:47.669Z,48.56
2023-03-31T01:46:30.527Z,48.54
2023-03-31T01:49:01.528Z,48.52
2023-03-31T01:52:04.933Z,48.57
2023-03-31T01:54:40.979Z,48.89
2023-03-31T01:57:17.591Z,48.81
2023-03-31T02:00:08.835Z,48.96
2023-03-31T02:02:46.434Z,49.11
2023-03-31T02:05:17.606Z,49.06
2023-03-31T02:07:52.916Z,49.20
2023-03-31T02:10:21.822Z,49.31
2023-03-31T02:12:51.344Z,49.44
2023-03-31T02:15:23.389Z,49.44
2023-03-31T02:17:54.861Z,49.75
2023-03-31T02:20:23.644Z,49.49
2023-03-31T02:22:56.124Z,49.53
2023-03-31T02:25:26.553Z,49.86
2023-03-31T02:27:58.134Z,49.86
2023-03-31T02:30:34.875Z,49.95
2023-03-31T02:33:05.598Z,49.95
2023-03-31T02:35:35.344Z,50.07
2023-03-31T02:38:06.924Z,50.01
2023-03-31T02:40:34.975Z,50.26
2023-03-31T02:43:03.004Z,50.07
2023-03-31T02:45:41.749Z,50.36
2023-03-31T02:48:12.720Z,50.00
2023-03-31T02:50:59.710Z,50.35
2023-03-31T02:53:48.874Z,50.36
2023-03-31T02:56:28.301Z,50.38
2023-03-31T02:58:57.520Z,50.33
2023-03-31T03:01:40.623Z,50.20
2023-03-31T03:04:37.463Z,50.51
2023-03-31T03:07:29.387Z,50.49
2023-03-31T03:10:15.928Z,50.54
2023-03-31T03:12:59.501Z,50.74
2023-03-31T03:15:31.779Z,50.67
2023-03-31T03:18:00.339Z,50.76
2023-03-31T03:20:28.451Z,50.78
2023-03-31T03:22:56.521Z,50.90
2023-03-31T03:25:24.669Z,50.78
2023-03-31T03:27:53.386Z,50.94
2023-03-31T03:30:21.773Z,50.99
2023-03-31T03:32:50.622Z,50.98
2023-03-31T03:35:18.739Z,51.21
2023-03-31T03:37:47.232Z,51.07
2023-03-31T03:40:15.551Z,51.23
2023-03-31T03:42:43.485Z,51.22
2023-03-31T03:45:11.556Z,51.34
2023-03-31T03:47:39.547Z,51.21
2023-03-31T03:50:07.932Z,51.28
2023-03-31T03:52:35.995Z,51.30
2023-03-31T03:55:04.160Z,51.36
2023-03-31T03:57:32.166Z,51.44
2023-03-31T04:00:00.044Z,51.44
2023-03-31T04:02:28.984Z,51.46
2023-03-31T04:04:57.138Z,51.47
2023-03-31T04:07:25.269Z,51.49
2023-03-31T04:09:53.133Z,51.71
2023-03-31T04:12:21.319Z,51.61
2023-03-31T04:14:49.297Z,51.53
2023-03-31T04:17:17.300Z,51.67
2023-03-31T04:19:45.131Z,51.66
2023-03-31T04:22:15.568Z,51.71
2023-03-31T04:24:46.110Z,51.55
2023-03-31T04:27:17.547Z,51.67
2023-03-31T04:29:47.779Z,51.78
2023-03-31T04:32:21.801Z,51.82
2023-03-31T04:34:50.869Z,51.79
2023-03-31T04:37:18.956Z,51.81
2023-03-31T04:39:50.766Z,51.76
2023-03-31T04:42:18.801Z,51.85
2023-03-31T04:44:46.871Z,51.83
2023-03-31T04:47:14.846Z,51.99
2023-03-31T04:49:43.030Z,52.00
2023-03-31T04:52:11.111Z,51.92
2023-03-31T04:54:39.289Z,51.99
2023-03-31T04:57:07.467Z,51.99
2023-03-31T04:59:35.648Z,52.10
2023-03-31T05:02:03.849Z,52.16
2023-03-31T05:04:32.196Z,52.24
2023-03-31T05:07:00.382Z,52.12
2023-03-31T05:09:28.358Z,52.24
2023-03-31T05:11:57.113Z,52.38
2023-03-31T05:14:25.051Z,52.37
2023-03-31T05:16:53.101Z,52.40
2023-03-31T05:19:21.095Z,52.60
2023-03-31T05:21:49.180Z,52.63
2023-03-31T05:24:17.125Z,52.74
2023-03-31T05:26:52.899Z,52.78
2023-03-31T05:29:21.365Z,52.77
2023-03-31T05:31:49.862Z,52.87
2023-03-31T05:34:18.036Z,52.92
2023-03-31T05:36:48.146Z,52.90
2023-03-31T05:39:16.375Z,53.05
2023-03-31T05:41:44.311Z,53.01
2023-03-31T05:44:12.494Z,52.97
2023-03-31T05:46:41.430Z,52.97
2023-03-31T05:49:11.620Z,52.92
2023-03-31T05:51:39.588Z,53.08
2023-03-31T05:54:07.764Z,52.98
2023-03-31T05:56:35.838Z,52.97
2023-03-31T05:59:05.331Z,53.04
2023-03-31T06:01:33.638Z,52.89
2023-03-31T06:04:02.103Z,52.96
2023-03-31T06:06:30.083Z,53.18
2023-03-31T06:08:58.166Z,53.02
2023-03-31T06:11:26.653Z,53.01
2023-03-31T06:13:54.728Z,53.07
2023-03-31T06:16:22.843Z,53.17
2023-03-31T06:18:53.479Z,53.19
2023-03-31T06:21:21.932Z,53.09
2023-03-31T06:23:49.854Z,53.10
2023-03-31T06:26:18.899Z,53.25
2023-03-31T06:28:47.024Z,53.20
2023-03-31T06:31:17.364Z,53.17
2023-03-31T06:33:45.504Z,53.20
2023-03-31T06:36:15.744Z,53.26
2023-03-31T06:38:44.033Z,53.26
2023-03-31T06:41:13.330Z,53.26
2023-03-31T06:43:41.878Z,53.28
2023-03-31T06:46:10.608Z,53.54
2023-03-31T06:48:38.957Z,53.49
2023-03-31T06:51:07.756Z,53.59
2023-03-31T06:53:36.757Z,53.74
2023-03-31T06:56:06.501Z,53.92
2023-03-31T06:58:35.078Z,53.82
2023-03-31T07:03:32.567Z,53.94
2023-03-31T07:06:01.210Z,53.71
2023-03-31T07:08:29.029Z,53.87
2023-03-31T07:10:58.957Z,53.76
2023-03-31T07:13:27.287Z,53.90
2023-03-31T07:15:56.575Z,53.99
2023-03-31T07:18:34.429Z,54.07
2023-03-31T07:21:05.667Z,54.02
2023-03-31T07:23:36.172Z,53.95
2023-03-31T07:26:04.185Z,54.07
2023-03-31T07:28:32.503Z,53.99
2023-03-31T07:31:00.489Z,53.99
2023-03-31T07:33:28.395Z,54.14
2023-03-31T07:36:08.237Z,54.10
2023-03-31T07:38:40.181Z,54.30
2023-03-31T07:41:12.346Z,54.35
2023-03-31T07:43:40.630Z,54.23
2023-03-31T07:46:14.666Z,54.33
2023-03-31T07:48:44.168Z,54.30
2023-03-31T07:51:12.633Z,54.40
2023-03-31T07:53:40.713Z,54.44
2023-03-31T07:56:09.095Z,54.59
2023-03-31T07:58:37.067Z,54.62
2023-03-31T08:01:05.429Z,54.63
2023-03-31T08:03:34.882Z,54.75
2023-03-31T08:06:02.938Z,54.87
2023-03-31T08:08:31.114Z,55.00
2023-03-31T08:10:58.995Z,55.05
2023-03-31T08:13:27.270Z,55.07
2023-03-31T08:15:55.312Z,55.35
2023-03-31T08:18:23.225Z,55.33
2023-03-31T08:20:51.032Z,55.39
2023-03-31T08:23:18.903Z,55.31
2023-03-31T08:25:47.545Z,55.59
2023-03-31T08:28:15.452Z,55.70
2023-03-31T08:30:43.535Z,55.58
2023-03-31T08:33:12.598Z,55.51
2023-03-31T08:35:40.902Z,55.62
2023-03-31T08:38:08.848Z,55.86
2023-03-31T08:40:40.923Z,55.85
2023-03-31T08:43:13.197Z,56.11
2023-03-31T08:45:43.956Z,56.21
2023-03-31T08:48:29.349Z,56.14
2023-03-31T08:51:04.440Z,56.18
2023-03-31T08:53:49.913Z,56.44
2023-03-31T08:56:19.708Z,56.42
2023-03-31T08:58:49.058Z,56.51
2023-03-31T09:01:47.874Z,56.67
2023-03-31T09:04:42.183Z,57.09
2023-03-31T09:07:22.543Z,57.14
2023-03-31T09:09:50.614Z,57.32
2023-03-31T09:12:38.913Z,57.46
2023-03-31T09:15:27.510Z,57.58
2023-03-31T09:17:58.788Z,57.66
2023-03-31T09:20:38.599Z,57.59
2023-03-31T09:23:12.834Z,57.57
2023-03-31T09:25:41.811Z,57.36
2023-03-31T09:28:16.248Z,57.51
2023-03-31T09:30:44.612Z,57.56
2023-03-31T09:33:20.267Z,57.65
2023-03-31T09:35:49.853Z,57.72
2023-03-31T09:38:19.437Z,57.76
2023-03-31T09:40:48.094Z,57.63
2023-03-31T09:43:24.142Z,57.51
2023-03-31T09:46:08.756Z,57.44
2023-03-31T09:48:39.191Z,57.25
2023-03-31T09:51:08.329Z,57.16
2023-03-31T09:53:59.525Z,57.06
2023-03-31T09:56:35.186Z,56.89
2023-03-31T09:59:04.054Z,56.80
2023-03-31T10:01:32.694Z,56.70
2023-03-31T10:04:02.966Z,56.59
2023-03-31T10:06:31.677Z,56.58
2023-03-31T10:09:05.648Z,56.49
2023-03-31T10:11:34.082Z,56.51
2023-03-31T10:14:04.041Z,56.43
2023-03-31T10:16:33.252Z,56.36
2023-03-31T10:19:27.262Z,56.28
2023-03-31T10:21:59.852Z,56.20
2023-03-31T10:24:41.221Z,56.16
2023-03-31T10:27:24.649Z,56.07
2023-03-31T10:29:56.727Z,56.04
2023-03-31T10:32:24.646Z,55.93
2023-03-31T10:34:53.066Z,55.87
2023-03-31T10:37:22.929Z,55.96
2023-03-31T10:40:01.817Z,55.78
2023-03-31T10:42:30.114Z,55.84
2023-03-31T10:45:26.340Z,55.75
2023-03-31T10:47:59.745Z,55.73
2023-03-31T10:50:29.580Z,55.71
2023-03-31T10:53:11.423Z,55.72
2023-03-31T10:55:42.068Z,55.60
2023-03-31T10:58:13.192Z,55.48
2023-03-31T11:00:56.409Z,55.40
2023-03-31T11:03:43.199Z,55.37
2023-03-31T11:06:22.559Z,55.29
2023-03-31T11:09:04.856Z,55.29
2023-03-31T11:11:38.763Z,55.24
2023-03-31T11:14:25.361Z,55.06
2023-03-31T11:16:56.523Z,55.00
2023-03-31T11:19:39.125Z,54.91
2023-03-31T11:22:10.271Z,54.74
2023-03-31T11:24:56.646Z,54.71
2023-03-31T11:27:33.835Z,54.37
2023-03-31T11:30:14.090Z,54.38
2023-03-31T11:32:58.153Z,54.24
2023-03-31T11:35:29.229Z,54.11
2023-03-31T11:38:08.101Z,53.95
2023-03-31T11:40:39.249Z,53.87
2023-03-31T11:43:10.405Z,53.73
2023-03-31T11:45:41.468Z,53.70
2023-03-31T11:48:22.717Z,53.64
2023-03-31T11:50:51.408Z,53.60
2023-03-31T11:53:23.992Z,53.55
2023-03-31T11:55:54.008Z,53.40
2023-03-31T11:58:32.317Z,53.17
2023-03-31T12:01:05.508Z,53.07
2023-03-31T12:03:41.772Z,53.09
2023-03-31T12:06:17.481Z,52.97
2023-03-31T12:09:01.980Z,52.95
2023-03-31T12:11:36.100Z,52.80
2023-03-31T12:14:22.793Z,52.69
2023-03-31T12:16:56.197Z,52.66
2023-03-31T12:19:24.060Z,52.55
2023-03-31T12:21:55.617Z,52.57
2023-03-31T12:24:23.609Z,52.34
2023-03-31T12:27:23.801Z,52.36
2023-03-31T12:29:54.547Z,52.35
2023-03-31T12:32:24.189Z,52.18
2023-03-31T12:34:57.141Z,52.13
2023-03-31T12:37:34.430Z,52.14
2023-03-31T12:40:12.960Z,51.96
2023-03-31T12:42:47.255Z,51.88
2023-03-31T12:45:31.614Z,51.88
2023-03-31T12:48:11.579Z,51.82
2023-03-31T12:50:50.281Z,51.75
2023-03-31T12:53:27.351Z,51.76
2023-03-31T12:55:58.048Z,51.59
2023-03-31T12:58:35.177Z,51.60
2023-03-31T13:01:15.155Z,51.54
2023-03-31T13:03:43.321Z,51.43
2023-03-31T13:06:12.506Z,51.41
2023-03-31T13:08:51.640Z,51.31
2023-03-31T13:11:22.072Z,51.28
2023-03-31T13:14:09.177Z,51.39
2023-03-31T13:16:37.283Z,51.33
2023-03-31T13:19:06.144Z,51.25
2023-03-31T13:21:52.358Z,51.11
2023-03-31T13:24:24.389Z,51.10
2023-03-31T13:26:54.858Z,51.04
2023-03-31T13:29:25.180Z,50.91
2023-03-31T13:32:02.513Z,50.95
2023-03-31T13:34:36.454Z,50.84
2023-03-31T13:37:04.409Z,50.63
2023-03-31T13:39:47.441Z,50.59
2023-03-31T13:42:24.533Z,50.51
2023-03-31T13:45:03.420Z,50.51
2023-03-31T13:47:40.990Z,50.39
2023-03-31T13:50:27.925Z,50.26
2023-03-31T13:52:59.105Z,50.22
2023-03-31T13:55:47.081Z,50.10
2023-03-31T13:58:32.822Z,50.02
2023-03-31T14:01:15.215Z,50.06
2023-03-31T14:04:01.494Z,49.98
2023-03-31T14:06:29.679Z,49.93
2023-03-31T14:09:00.935Z,49.88
2023-03-31T14:11:30.474Z,49.87
2023-03-31T14:14:12.545Z,49.81
2023-03-31T14:16:41.851Z,49.70
2023-03-31T14:22:08.077Z,49.65
2023-03-31T14:24:39.637Z,49.58
2023-03-31T14:27:26.730Z,49.56
2023-03-31T14:29:54.620Z,49.58
2023-03-31T14:32:24.150Z,49.44
2023-03-31T14:35:10.973Z,49.56
2023-03-31T14:37:39.937Z,49.50
2023-03-31T14:40:14.656Z,49.44
2023-03-31T14:42:49.646Z,49.31
2023-03-31T14:45:25.127Z,49.33
2023-03-31T14:47:54.101Z,49.33
2023-03-31T14:50:22.324Z,49.52
2023-03-31T14:52:52.505Z,49.62
2023-03-31T14:55:25.187Z,49.64
2023-03-31T14:57:58.726Z,49.75
2023-03-31T15:00:29.818Z,49.79
2023-03-31T15:02:58.811Z,50.02
2023-03-31T15:05:34.688Z,49.97
2023-03-31T15:08:04.080Z,50.07
2023-03-31T15:10:35.505Z,50.08
2023-03-31T15:13:11.743Z,50.23
2023-03-31T15:15:39.724Z,50.36
2023-03-31T15:18:11.491Z,50.37
2023-03-31T15:20:40.936Z,50.47
2023-03-31T15:23:26.057Z,50.55
2023-03-31T15:25:58.234Z,50.57
2023-03-31T15:28:28.447Z,50.61
2023-03-31T15:31:07.288Z,50.63
2023-03-31T15:33:41.769Z,50.75
2023-03-31T15:36:13.895Z,50.78
2023-03-31T15:38:42.451Z,50.73
2023-03-31T15:41:14.620Z,50.94
2023-03-31T15:43:43.317Z,50.90
2023-03-31T15:46:12.221Z,51.07
2023-03-31T15:48:58.178Z,51.22
2023-03-31T15:51:30.895Z,51.37
2023-03-31T15:53:58.844Z,51.56
2023-03-31T15:56:38.284Z,51.68
2023-03-31T15:59:06.994Z,51.75
2023-03-31T16:01:38.811Z,51.88
2023-03-31T16:04:08.569Z,51.85
2023-03-31T16:06:47.574Z,51.98
2023-03-31T16:09:19.444Z,52.12
2023-03-31T16:11:50.150Z,52.09
2023-03-31T16:14:21.636Z,52.05
2023-03-31T16:16:52.968Z,52.01
2023-03-31T16:19:22.074Z,52.05
2023-03-31T16:21:53.013Z,52.07
2023-03-31T16:24:21.805Z,52.09
2023-03-31T16:26:49.713Z,52.11
2023-03-31T16:29:21.356Z,52.08
2023-03-31T16:31:49.427Z,52.13
2023-03-31T16:34:17.602Z,52.22
2023-03-31T16:36:45.793Z,52.24
2023-03-31T16:39:13.854Z,52.15
2023-03-31T16:41:41.740Z,52.20
2023-03-31T16:44:09.800Z,52.28
2023-03-31T16:46:37.778Z,52.27
2023-03-31T16:49:06.173Z,52.27
2023-03-31T16:51:34.243Z,52.38
2023-03-31T16:54:02.314Z,52.37
2023-03-31T16:56:30.700Z,52.31
2023-03-31T16:58:58.992Z,52.35
2023-03-31T17:01:27.278Z,52.39
2023-03-31T17:03:56.092Z,52.35
2023-03-31T17:06:24.130Z,52.42
2023-03-31T17:08:52.004Z,52.40
2023-03-31T17:11:19.971Z,52.38
2023-03-31T17:13:48.866Z,52.47
2023-03-31T17:16:24.434Z,52.51
2023-03-31T17:19:00.783Z,52.62
2023-03-31T17:21:30.893Z,52.71
2023-03-31T17:24:01.611Z,52.67
2023-03-31T17:26:30.949Z,52.71
2023-03-31T17:29:00.763Z,52.72
2023-03-31T17:31:28.691Z,52.70
2023-03-31T17:33:57.023Z,52.67
2023-03-31T17:36:24.999Z,52.66
2023-03-31T17:38:52.964Z,52.67
2023-03-31T17:41:21.331Z,52.72
2023-03-31T17:43:50.291Z,52.79
2023-03-31T17:46:19.011Z,52.82
2023-03-31T17:48:47.215Z,52.85
2023-03-31T17:51:16.952Z,52.90
2023-03-31T17:53:46.340Z,52.85
2023-03-31T17:56:15.644Z,52.83
2023-03-31T17:58:43.835Z,52.75
2023-03-31T18:01:12.884Z,52.96
2023-03-31T18:03:41.318Z,53.11
2023-03-31T18:06:11.845Z,53.08
2023-03-31T18:08:40.454Z,53.12
2023-03-31T18:11:09.431Z,53.19
2023-03-31T18:13:37.821Z,53.17
2023-03-31T18:16:08.773Z,53.31
2023-03-31T18:18:37.032Z,53.33
2023-03-31T18:21:06.753Z,53.31
2023-03-31T18:23:35.130Z,53.30
2023-03-31T18:26:06.268Z,53.35
2023-03-31T18:28:34.090Z,53.41
2023-03-31T18:31:05.760Z,53.50
2023-03-31T18:33:34.519Z,53.56
2023-03-31T18:36:03.594Z,53.57
2023-03-31T18:38:32.713Z,53.58
2023-03-31T18:41:00.784Z,53.60
2023-03-31T18:43:30.221Z,53.60
2023-03-31T18:46:01.588Z,53.72
2023-03-31T18:48:29.810Z,53.62
2023-03-31T18:50:58.522Z,53.63
2023-03-31T18:53:26.898Z,53.66
2023-03-31T18:55:57.001Z,53.75
2023-03-31T18:58:25.953Z,53.73
2023-03-31T19:00:56.623Z,53.79
2023-03-31T19:03:26.758Z,53.76
2023-03-31T19:06:04.781Z,53.76
2023-03-31T19:08:32.749Z,53.90
2023-03-31T19:11:09.627Z,53.97
2023-03-31T19:13:38.510Z,54.15
2023-03-31T19:16:07.106Z,54.23
2023-03-31T19:18:35.071Z,54.16
2023-03-31T19:21:03.346Z,54.24
2023-03-31T19:23:31.869Z,54.33
2023-03-31T19:25:59.772Z,54.47
2023-03-31T19:28:27.962Z,54.47
2023-03-31T19:30:56.897Z,54.57
2023-03-31T19:33:27.146Z,54.60
2023-03-31T19:35:55.607Z,54.56
2023-03-31T19:38:25.727Z,54.63
2023-03-31T19:40:53.577Z,54.68
2023-03-31T19:43:23.172Z,54.66
2023-03-31T19:45:53.495Z,54.66
2023-03-31T19:48:22.641Z,54.77
2023-03-31T19:50:51.942Z,54.64
2023-03-31T19:53:21.036Z,54.74
2023-03-31T19:55:57.208Z,54.80
2023-03-31T19:58:25.480Z,54.77
2023-03-31T20:00:54.797Z,54.96
2023-03-31T20:03:23.788Z,54.97
2023-03-31T20:05:53.910Z,54.95
2023-03-31T20:08:21.980Z,55.03
2023-03-31T20:10:49.915Z,55.09
2023-03-31T20:13:18.653Z,55.06
2023-03-31T20:15:46.879Z,55.05
2023-03-31T20:18:14.855Z,55.16
2023-03-31T20:20:43.174Z,55.05
2023-03-31T20:23:11.169Z,55.19
2023-03-31T20:25:39.150Z,55.38
2023-03-31T20:28:07.112Z,55.38
2023-03-31T20:30:38.046Z,55.49
2023-03-31T20:33:06.062Z,55.41
2023-03-31T20:35:34.258Z,55.51
2023-03-31T20:38:02.179Z,55.54
2023-03-31T20:40:30.255Z,55.62
2023-03-31T20:42:58.136Z,55.57
2023-03-31T20:45:26.403Z,55.71
2023-03-31T20:47:54.499Z,55.65
2023-03-31T20:50:23.180Z,55.84
2023-03-31T20:52:51.143Z,55.86
2023-03-31T20:55:19.015Z,55.88
2023-03-31T20:57:46.910Z,55.85
2023-03-31T21:00:15.591Z,55.94
2023-03-31T21:02:43.743Z,56.03
2023-03-31T21:05:11.951Z,55.99
2023-03-31T21:07:39.817Z,56.18
2023-03-31T21:10:07.913Z,56.14
2023-03-31T21:12:36.372Z,56.25
2023-03-31T21:15:04.546Z,56.25
2023-03-31T21:17:32.421Z,56.32
2023-03-31T21:20:00.725Z,56.25
2023-03-31T21:22:28.691Z,56.37
2023-03-31T21:24:56.868Z,56.47
2023-03-31T21:27:24.737Z,56.44
2023-03-31T21:29:52.723Z,56.36
2023-03-31T21:32:20.646Z,56.46
2023-03-31T21:34:48.768Z,56.59
2023-03-31T21:37:16.937Z,56.66
2023-03-31T21:39:44.910Z,56.68
2023-03-31T21:42:14.125Z,56.74
2023-03-31T21:44:42.487Z,56.78
2023-03-31T21:47:10.984Z,56.80
2023-03-31T21:49:39.477Z,56.89
2023-03-31T21:52:07.341Z,56.88
2023-03-31T21:54:35.228Z,56.88
2023-03-31T21:57:03.119Z,56.88
2023-03-31T21:59:31.269Z,56.88
2023-03-31T22:01:59.303Z,56.82
2023-03-31T22:04:27.266Z,56.85
2023-03-31T22:06:55.484Z,56.94
2023-03-31T22:09:24.080Z,56.98
2023-03-31T22:11:52.768Z,57.03
2023-03-31T22:14:21.772Z,57.04
2023-03-31T22:16:49.742Z,57.15
2023-03-31T22:19:17.722Z,57.10
2023-03-31T22:21:47.429Z,57.12
2023-03-31T22:24:15.683Z,57.11
2023-03-31T22:26:43.590Z,57.17
2023-03-31T22:29:15.739Z,57.12
2023-03-31T22:31:43.601Z,57.19
2023-03-31T22:34:12.120Z,57.19
2023-03-31T22:36:40.183Z,57.25
2023-03-31T22:39:08.241Z,57.25
2023-03-31T22:41:36.737Z,57.40
2023-03-31T22:44:04.831Z,57.44
2023-03-31T22:46:33.059Z,57.50
2023-03-31T22:49:00.987Z,57.45
2023-03-31T22:51:28.993Z,57.45
2023-03-31T22:53:57.280Z,57.48
2023-03-31T22:56:27.042Z,57.46
2023-03-31T22:58:57.073Z,57.47
2023-03-31T23:01:25.612Z,57.64
2023-03-31T23:03:53.693Z,57.61
2023-03-31T23:06:22.011Z,57.61
2023-03-31T23:08:50.100Z,57.70
2023-03-31T23:11:18.888Z,57.77
2023-03-31T23:13:47.078Z,57.68
2023-03-31T23:16:22.581Z,57.73
2023-03-31T23:18:52.742Z,57.76
2023-03-31T23:21:22.750Z,57.86
2023-03-31T23:23:53.749Z,57.82
2023-03-31T23:26:22.589Z,57.95
2023-03-31T23:28:51.088Z,58.00
2023-03-31T23:31:20.709Z,58.06
2023-03-31T23:33:48.896Z,57.91
2023-03-31T23:36:18.224Z,57.97
2023-03-31T23:38:47.021Z,58.03
2023-03-31T23:41:15.030Z,58.00
2023-03-31T23:43:43.523Z,58.05
2023-03-31T23:46:13.110Z,58.11
2023-03-31T23:48:41.273Z,58.15
2023-03-31T23:51:09.498Z,58.16
2023-03-31T23:53:37.369Z,58.20
2023-03-31T23:56:07.686Z,58.39
2023-03-31T23:58:35.875Z,58.47
